Kendall, Florida
Current Conditions -  °F | °C
As of 9:53 PM on Monday 22 Dec 2014 (Local Time) from KMIA Reporting Station
Broken Clouds Broken Clouds  
Wind Chill: 74°   Ceiling: 25000
Heat Index: 74°   Visibility: 10mi
Dew Point: 71°   Wind: 7mph
Humidity: 91%   Direction: 140°SE
Pressure: 29.98"   Gusts: NA
Location:  25.65°N, 80.33°W
Report Text: KMIA 230253Z 14006KT 10SM FEW020 BKN250 23/22 A2998 RMK AO2 SLP150 T02330217 50003
Loading
Personal Weather Stations






























Interactive Weather Map New forecast layout! Learn more

10-Day Weather Forecast

Advertisements
Track Severe Weather on mobile